sensor_id;sensor_type;location;lat;lon;timestamp;temperature;humidity
796;DHT22;381;48.770;9.188;2022-10-29T00:03:43;16.10;99.90
796;DHT22;381;48.770;9.188;2022-10-29T00:08:47;16.00;99.90
796;DHT22;381;48.770;9.188;2022-10-29T00:13:53;16.00;99.90
796;DHT22;381;48.770;9.188;2022-10-29T00:18:57;16.00;99.90
796;DHT22;381;48.770;9.188;2022-10-29T00:23:59;16.00;99.90
796;DHT22;381;48.770;9.188;2022-10-29T00:29:01;16.00;99.90
796;DHT22;381;48.770;9.188;2022-10-29T00:34:04;15.90;99.90
796;DHT22;381;48.770;9.188;2022-10-29T00:39:07;15.90;99.90
796;DHT22;381;48.770;9.188;2022-10-29T00:44:26;15.80;99.90
796;DHT22;381;48.770;9.188;2022-10-29T00:49:31;15.90;99.90
796;DHT22;381;48.770;9.188;2022-10-29T00:54:35;15.90;99.90
796;DHT22;381;48.770;9.188;2022-10-29T00:59:40;15.90;99.90
796;DHT22;381;48.770;9.188;2022-10-29T01:04:44;15.80;99.90
796;DHT22;381;48.770;9.188;2022-10-29T01:09:46;15.90;99.90
796;DHT22;381;48.770;9.188;2022-10-29T01:14:55;15.90;99.90
796;DHT22;381;48.770;9.188;2022-10-29T01:20:34;15.80;99.90
796;DHT22;381;48.770;9.188;2022-10-29T01:26:01;15.80;99.90
796;DHT22;381;48.770;9.188;2022-10-29T01:31:26;15.80;99.90
796;DHT22;381;48.770;9.188;2022-10-29T01:36:37;15.80;99.90
796;DHT22;381;48.770;9.188;2022-10-29T01:41:49;15.80;99.90
796;DHT22;381;48.770;9.188;2022-10-29T01:46:56;15.90;99.90
796;DHT22;381;48.770;9.188;2022-10-29T01:52:02;15.90;99.90
796;DHT22;381;48.770;9.188;2022-10-29T01:57:27;15.90;99.90
796;DHT22;381;48.770;9.188;2022-10-29T02:02:42;15.90;99.90
796;DHT22;381;48.770;9.188;2022-10-29T02:07:49;15.90;99.90
796;DHT22;381;48.770;9.188;2022-10-29T02:12:52;15.90;99.90
796;DHT22;381;48.770;9.188;2022-10-29T02:17:59;15.80;99.90
796;DHT22;381;48.770;9.188;2022-10-29T02:23:02;15.80;99.90
796;DHT22;381;48.770;9.188;2022-10-29T02:28:04;15.80;99.90
796;DHT22;381;48.770;9.188;2022-10-29T02:33:07;15.80;99.90
796;DHT22;381;48.770;9.188;2022-10-29T02:38:09;15.90;99.90
796;DHT22;381;48.770;9.188;2022-10-29T02:43:11;15.90;99.90
796;DHT22;381;48.770;9.188;2022-10-29T02:48:15;15.90;99.90
796;DHT22;381;48.770;9.188;2022-10-29T02:53:17;15.90;99.90
796;DHT22;381;48.770;9.188;2022-10-29T02:58:19;15.90;99.90
796;DHT22;381;48.770;9.188;2022-10-29T03:03:22;16.00;99.90
796;DHT22;381;48.770;9.188;2022-10-29T03:08:25;16.00;99.90
796;DHT22;381;48.770;9.188;2022-10-29T03:13:27;16.00;99.90
796;DHT22;381;48.770;9.188;2022-10-29T03:18:30;16.00;99.90
796;DHT22;381;48.770;9.188;2022-10-29T03:23:32;16.00;99.90
796;DHT22;381;48.770;9.188;2022-10-29T03:28:34;16.10;99.90
796;DHT22;381;48.770;9.188;2022-10-29T03:33:38;16.10;99.90
796;DHT22;381;48.770;9.188;2022-10-29T03:38:40;16.10;99.90
796;DHT22;381;48.770;9.188;2022-10-29T03:43:42;16.10;99.90
796;DHT22;381;48.770;9.188;2022-10-29T03:48:48;16.10;99.90
796;DHT22;381;48.770;9.188;2022-10-29T03:53:50;16.10;99.90
796;DHT22;381;48.770;9.188;2022-10-29T03:58:52;16.10;99.90
796;DHT22;381;48.770;9.188;2022-10-29T04:03:55;16.00;99.90
796;DHT22;381;48.770;9.188;2022-10-29T04:08:57;16.00;99.90
796;DHT22;381;48.770;9.188;2022-10-29T04:13:59;16.00;99.90
796;DHT22;381;48.770;9.188;2022-10-29T04:19:03;16.10;99.90
796;DHT22;381;48.770;9.188;2022-10-29T04:24:05;16.10;99.90
796;DHT22;381;48.770;9.188;2022-10-29T04:29:08;16.10;99.90
796;DHT22;381;48.770;9.188;2022-10-29T04:34:11;16.10;99.90
796;DHT22;381;48.770;9.188;2022-10-29T04:39:13;16.00;99.90
796;DHT22;381;48.770;9.188;2022-10-29T04:44:15;16.00;99.90
796;DHT22;381;48.770;9.188;2022-10-29T04:49:18;16.00;99.90
796;DHT22;381;48.770;9.188;2022-10-29T04:54:20;15.90;99.90
796;DHT22;381;48.770;9.188;2022-10-29T04:59:22;15.90;99.90
796;DHT22;381;48.770;9.188;2022-10-29T05:04:26;15.80;99.90
796;DHT22;381;48.770;9.188;2022-10-29T05:09:29;15.80;99.90
796;DHT22;381;48.770;9.188;2022-10-29T05:14:31;15.70;99.90
796;DHT22;381;48.770;9.188;2022-10-29T05:19:34;15.70;99.90
796;DHT22;381;48.770;9.188;2022-10-29T05:24:36;15.70;99.90
796;DHT22;381;48.770;9.188;2022-10-29T05:29:38;15.60;99.90
796;DHT22;381;48.770;9.188;2022-10-29T05:34:42;15.50;99.90
796;DHT22;381;48.770;9.188;2022-10-29T05:39:44;15.50;99.90
796;DHT22;381;48.770;9.188;2022-10-29T05:44:46;15.40;99.90
796;DHT22;381;48.770;9.188;2022-10-29T05:49:49;15.40;99.90
796;DHT22;381;48.770;9.188;2022-10-29T05:54:51;15.30;99.90
796;DHT22;381;48.770;9.188;2022-10-29T05:59:53;15.30;99.90
796;DHT22;381;48.770;9.188;2022-10-29T06:04:57;15.30;99.90
796;DHT22;381;48.770;9.188;2022-10-29T06:09:59;15.20;99.90
796;DHT22;381;48.770;9.188;2022-10-29T06:15:01;15.20;99.90
796;DHT22;381;48.770;9.188;2022-10-29T06:20:05;15.20;99.90
796;DHT22;381;48.770;9.188;2022-10-29T06:25:08;15.10;99.90
796;DHT22;381;48.770;9.188;2022-10-29T06:30:11;15.10;99.90
796;DHT22;381;48.770;9.188;2022-10-29T06:35:14;15.10;99.90
796;DHT22;381;48.770;9.188;2022-10-29T06:40:16;15.10;99.90
796;DHT22;381;48.770;9.188;2022-10-29T06:45:19;15.10;99.90
796;DHT22;381;48.770;9.188;2022-10-29T06:50:22;15.00;99.90
796;DHT22;381;48.770;9.188;2022-10-29T06:55:25;15.10;99.90
796;DHT22;381;48.770;9.188;2022-10-29T07:00:28;15.00;99.90
796;DHT22;381;48.770;9.188;2022-10-29T07:05:32;15.10;99.90
796;DHT22;381;48.770;9.188;2022-10-29T07:10:34;15.10;99.90
796;DHT22;381;48.770;9.188;2022-10-29T07:15:36;15.10;99.90
796;DHT22;381;48.770;9.188;2022-10-29T07:20:41;15.20;99.90
796;DHT22;381;48.770;9.188;2022-10-29T07:25:43;15.20;99.90
796;DHT22;381;48.770;9.188;2022-10-29T07:30:46;15.20;99.90
796;DHT22;381;48.770;9.188;2022-10-29T07:35:49;15.30;99.90
796;DHT22;381;48.770;9.188;2022-10-29T07:40:52;15.30;99.90
796;DHT22;381;48.770;9.188;2022-10-29T07:45:54;15.40;99.90
796;DHT22;381;48.770;9.188;2022-10-29T07:50:58;15.50;99.90
796;DHT22;381;48.770;9.188;2022-10-29T07:56:00;15.50;99.90
796;DHT22;381;48.770;9.188;2022-10-29T08:01:03;15.60;99.90
796;DHT22;381;48.770;9.188;2022-10-29T08:06:06;15.70;99.90
796;DHT22;381;48.770;9.188;2022-10-29T08:11:08;15.80;99.90
796;DHT22;381;48.770;9.188;2022-10-29T08:16:10;15.90;99.90
796;DHT22;381;48.770;9.188;2022-10-29T08:21:14;16.00;99.90
796;DHT22;381;48.770;9.188;2022-10-29T08:26:16;16.20;99.90
796;DHT22;381;48.770;9.188;2022-10-29T08:31:18;16.40;99.90
796;DHT22;381;48.770;9.188;2022-10-29T08:36:21;16.70;99.90
796;DHT22;381;48.770;9.188;2022-10-29T08:41:33;16.90;99.90
796;DHT22;381;48.770;9.188;2022-10-29T08:46:42;17.00;99.90
796;DHT22;381;48.770;9.188;2022-10-29T08:51:52;17.20;99.90
796;DHT22;381;48.770;9.188;2022-10-29T08:56:56;17.30;99.90
796;DHT22;381;48.770;9.188;2022-10-29T09:02:00;17.40;99.90
796;DHT22;381;48.770;9.188;2022-10-29T09:07:14;17.50;99.90
796;DHT22;381;48.770;9.188;2022-10-29T09:12:43;17.50;99.90
796;DHT22;381;48.770;9.188;2022-10-29T09:17:57;17.40;99.90
796;DHT22;381;48.770;9.188;2022-10-29T09:23:13;17.30;99.90
796;DHT22;381;48.770;9.188;2022-10-29T09:28:25;17.30;99.90
796;DHT22;381;48.770;9.188;2022-10-29T09:33:31;17.30;99.90
796;DHT22;381;48.770;9.188;2022-10-29T09:38:40;17.20;99.90
796;DHT22;381;48.770;9.188;2022-10-29T09:43:48;17.20;99.90
796;DHT22;381;48.770;9.188;2022-10-29T09:48:57;17.20;99.90
796;DHT22;381;48.770;9.188;2022-10-29T09:54:04;17.20;99.90
796;DHT22;381;48.770;9.188;2022-10-29T09:59:14;17.20;99.90
796;DHT22;381;48.770;9.188;2022-10-29T10:04:22;17.20;99.90
796;DHT22;381;48.770;9.188;2022-10-29T10:09:49;17.20;99.90
796;DHT22;381;48.770;9.188;2022-10-29T10:15:13;17.30;99.90
796;DHT22;381;48.770;9.188;2022-10-29T10:20:25;17.30;99.90
796;DHT22;381;48.770;9.188;2022-10-29T10:25:34;17.30;99.90
796;DHT22;381;48.770;9.188;2022-10-29T10:30:37;17.40;99.90
796;DHT22;381;48.770;9.188;2022-10-29T10:35:39;17.40;99.90
796;DHT22;381;48.770;9.188;2022-10-29T10:40:42;17.40;99.90
796;DHT22;381;48.770;9.188;2022-10-29T10:45:51;17.50;99.90
796;DHT22;381;48.770;9.188;2022-10-29T10:51:09;17.50;99.90
796;DHT22;381;48.770;9.188;2022-10-29T10:56:18;17.60;99.90
796;DHT22;381;48.770;9.188;2022-10-29T11:01:24;17.70;99.90
796;DHT22;381;48.770;9.188;2022-10-29T11:06:31;17.80;99.90
796;DHT22;381;48.770;9.188;2022-10-29T11:11:37;17.90;99.90
796;DHT22;381;48.770;9.188;2022-10-29T11:16:44;18.00;99.90
796;DHT22;381;48.770;9.188;2022-10-29T11:21:57;18.00;99.90
796;DHT22;381;48.770;9.188;2022-10-29T11:27:07;18.00;99.90
796;DHT22;381;48.770;9.188;2022-10-29T11:32:16;18.00;99.90
796;DHT22;381;48.770;9.188;2022-10-29T11:37:24;18.00;99.90
796;DHT22;381;48.770;9.188;2022-10-29T11:42:31;18.10;99.90
796;DHT22;381;48.770;9.188;2022-10-29T11:47:43;18.10;99.90
796;DHT22;381;48.770;9.188;2022-10-29T11:52:56;18.20;99.90
796;DHT22;381;48.770;9.188;2022-10-29T11:58:09;18.20;99.90
796;DHT22;381;48.770;9.188;2022-10-29T12:03:35;18.20;99.90
796;DHT22;381;48.770;9.188;2022-10-29T12:08:56;18.30;99.90
796;DHT22;381;48.770;9.188;2022-10-29T12:14:09;18.40;99.90
796;DHT22;381;48.770;9.188;2022-10-29T12:19:23;18.40;99.90
796;DHT22;381;48.770;9.188;2022-10-29T12:24:56;18.60;99.90
796;DHT22;381;48.770;9.188;2022-10-29T12:30:02;18.70;99.90
796;DHT22;381;48.770;9.188;2022-10-29T12:35:12;18.90;99.90
796;DHT22;381;48.770;9.188;2022-10-29T12:40:19;19.00;99.90
796;DHT22;381;48.770;9.188;2022-10-29T12:45:30;19.10;99.90
796;DHT22;381;48.770;9.188;2022-10-29T12:50:45;19.30;99.90
796;DHT22;381;48.770;9.188;2022-10-29T12:55:50;19.50;99.90
796;DHT22;381;48.770;9.188;2022-10-29T13:00:54;19.70;99.90
796;DHT22;381;48.770;9.188;2022-10-29T13:05:56;19.90;99.90
796;DHT22;381;48.770;9.188;2022-10-29T13:10:58;20.10;99.90
796;DHT22;381;48.770;9.188;2022-10-29T13:16:06;20.20;99.90
796;DHT22;381;48.770;9.188;2022-10-29T13:26:56;20.40;99.90
796;DHT22;381;48.770;9.188;2022-10-29T13:32:01;20.50;99.90
796;DHT22;381;48.770;9.188;2022-10-29T13:43:01;20.60;99.90
796;DHT22;381;48.770;9.188;2022-10-29T13:48:06;20.60;99.90
796;DHT22;381;48.770;9.188;2022-10-29T13:53:13;20.70;99.90
796;DHT22;381;48.770;9.188;2022-10-29T13:58:23;20.70;99.90
796;DHT22;381;48.770;9.188;2022-10-29T14:03:35;20.60;99.90
796;DHT22;381;48.770;9.188;2022-10-29T14:08:46;20.40;99.90
796;DHT22;381;48.770;9.188;2022-10-29T14:13:52;20.30;99.90
796;DHT22;381;48.770;9.188;2022-10-29T14:18:56;20.10;99.90
796;DHT22;381;48.770;9.188;2022-10-29T14:24:00;19.90;99.90
796;DHT22;381;48.770;9.188;2022-10-29T14:29:13;19.80;99.90
796;DHT22;381;48.770;9.188;2022-10-29T14:34:25;19.80;99.90
796;DHT22;381;48.770;9.188;2022-10-29T14:39:31;19.70;99.90
796;DHT22;381;48.770;9.188;2022-10-29T14:44:34;19.70;99.90
796;DHT22;381;48.770;9.188;2022-10-29T14:49:44;19.60;99.90
796;DHT22;381;48.770;9.188;2022-10-29T14:54:48;19.50;99.90
796;DHT22;381;48.770;9.188;2022-10-29T14:59:53;19.40;99.90
796;DHT22;381;48.770;9.188;2022-10-29T15:04:59;19.50;99.90
796;DHT22;381;48.770;9.188;2022-10-29T15:10:14;19.50;99.90
796;DHT22;381;48.770;9.188;2022-10-29T15:15:23;19.50;99.90
796;DHT22;381;48.770;9.188;2022-10-29T15:20:30;19.60;99.90
796;DHT22;381;48.770;9.188;2022-10-29T15:25:34;19.60;99.90
796;DHT22;381;48.770;9.188;2022-10-29T15:30:38;19.60;99.90
796;DHT22;381;48.770;9.188;2022-10-29T15:35:47;19.50;99.90
796;DHT22;381;48.770;9.188;2022-10-29T15:41:28;19.50;99.90
796;DHT22;381;48.770;9.188;2022-10-29T15:46:42;19.50;99.90
796;DHT22;381;48.770;9.188;2022-10-29T15:51:46;19.40;99.90
796;DHT22;381;48.770;9.188;2022-10-29T15:56:49;19.40;99.90
796;DHT22;381;48.770;9.188;2022-10-29T16:01:52;19.30;99.90
796;DHT22;381;48.770;9.188;2022-10-29T16:06:55;19.20;99.90
796;DHT22;381;48.770;9.188;2022-10-29T16:11:57;19.10;99.90
796;DHT22;381;48.770;9.188;2022-10-29T16:17:00;19.00;99.90
796;DHT22;381;48.770;9.188;2022-10-29T16:22:03;18.90;99.90
796;DHT22;381;48.770;9.188;2022-10-29T16:27:11;18.80;99.90
796;DHT22;381;48.770;9.188;2022-10-29T16:32:14;18.80;99.90
796;DHT22;381;48.770;9.188;2022-10-29T16:37:18;18.70;99.90
796;DHT22;381;48.770;9.188;2022-10-29T16:42:28;18.60;99.90
796;DHT22;381;48.770;9.188;2022-10-29T16:47:31;18.60;99.90
796;DHT22;381;48.770;9.188;2022-10-29T16:52:34;18.50;99.90
796;DHT22;381;48.770;9.188;2022-10-29T16:57:36;18.50;99.90
796;DHT22;381;48.770;9.188;2022-10-29T17:02:38;18.40;99.90
796;DHT22;381;48.770;9.188;2022-10-29T17:07:45;18.40;99.90
796;DHT22;381;48.770;9.188;2022-10-29T17:12:47;18.40;99.90
796;DHT22;381;48.770;9.188;2022-10-29T17:17:50;18.40;99.90
796;DHT22;381;48.770;9.188;2022-10-29T17:22:53;18.40;99.90
796;DHT22;381;48.770;9.188;2022-10-29T17:27:55;18.40;99.90
796;DHT22;381;48.770;9.188;2022-10-29T17:32:57;18.40;99.90
796;DHT22;381;48.770;9.188;2022-10-29T17:38:01;18.40;99.90
796;DHT22;381;48.770;9.188;2022-10-29T17:43:03;18.30;99.90
796;DHT22;381;48.770;9.188;2022-10-29T17:48:05;18.30;99.90
796;DHT22;381;48.770;9.188;2022-10-29T17:53:09;18.20;99.90
796;DHT22;381;48.770;9.188;2022-10-29T17:58:11;18.20;99.90
796;DHT22;381;48.770;9.188;2022-10-29T18:03:13;18.10;99.90
796;DHT22;381;48.770;9.188;2022-10-29T18:08:17;18.10;99.90
796;DHT22;381;48.770;9.188;2022-10-29T18:13:19;18.10;99.90
796;DHT22;381;48.770;9.188;2022-10-29T18:18:21;18.00;99.90
796;DHT22;381;48.770;9.188;2022-10-29T18:23:24;18.00;99.90
796;DHT22;381;48.770;9.188;2022-10-29T18:28:27;18.00;99.90
796;DHT22;381;48.770;9.188;2022-10-29T18:33:29;17.90;99.90
796;DHT22;381;48.770;9.188;2022-10-29T18:38:32;17.90;99.90
796;DHT22;381;48.770;9.188;2022-10-29T18:43:34;17.90;99.90
796;DHT22;381;48.770;9.188;2022-10-29T18:48:37;17.80;99.90
796;DHT22;381;48.770;9.188;2022-10-29T18:53:41;17.80;99.90
796;DHT22;381;48.770;9.188;2022-10-29T18:58:44;17.80;99.90
796;DHT22;381;48.770;9.188;2022-10-29T19:03:48;17.70;99.90
796;DHT22;381;48.770;9.188;2022-10-29T19:08:52;17.70;99.90
796;DHT22;381;48.770;9.188;2022-10-29T19:13:55;17.70;99.90
796;DHT22;381;48.770;9.188;2022-10-29T19:18:59;17.60;99.90
796;DHT22;381;48.770;9.188;2022-10-29T19:24:04;17.60;99.90
796;DHT22;381;48.770;9.188;2022-10-29T19:29:06;17.60;99.90
796;DHT22;381;48.770;9.188;2022-10-29T19:34:08;17.60;99.90
796;DHT22;381;48.770;9.188;2022-10-29T19:39:12;17.50;99.90
796;DHT22;381;48.770;9.188;2022-10-29T19:44:14;17.50;99.90
796;DHT22;381;48.770;9.188;2022-10-29T19:49:16;17.50;99.90
796;DHT22;381;48.770;9.188;2022-10-29T19:54:19;17.40;99.90
796;DHT22;381;48.770;9.188;2022-10-29T19:59:21;17.40;99.90
796;DHT22;381;48.770;9.188;2022-10-29T20:04:23;17.40;99.90
796;DHT22;381;48.770;9.188;2022-10-29T20:09:27;17.40;99.90
796;DHT22;381;48.770;9.188;2022-10-29T20:14:30;17.30;99.90
796;DHT22;381;48.770;9.188;2022-10-29T20:19:35;17.30;99.90
796;DHT22;381;48.770;9.188;2022-10-29T20:24:38;17.30;99.90
796;DHT22;381;48.770;9.188;2022-10-29T20:29:40;17.20;99.90
796;DHT22;381;48.770;9.188;2022-10-29T20:34:42;17.20;99.90
796;DHT22;381;48.770;9.188;2022-10-29T20:39:46;17.20;99.90
796;DHT22;381;48.770;9.188;2022-10-29T20:44:48;17.20;99.90
796;DHT22;381;48.770;9.188;2022-10-29T20:49:50;17.10;99.90
796;DHT22;381;48.770;9.188;2022-10-29T20:54:53;17.10;99.90
796;DHT22;381;48.770;9.188;2022-10-29T20:59:55;17.10;99.90
796;DHT22;381;48.770;9.188;2022-10-29T21:04:58;17.10;99.90
796;DHT22;381;48.770;9.188;2022-10-29T21:10:01;17.10;99.90
796;DHT22;381;48.770;9.188;2022-10-29T21:15:04;17.10;99.90
796;DHT22;381;48.770;9.188;2022-10-29T21:20:07;17.00;99.90
796;DHT22;381;48.770;9.188;2022-10-29T21:25:10;17.00;99.90
796;DHT22;381;48.770;9.188;2022-10-29T21:30:13;17.00;99.90
796;DHT22;381;48.770;9.188;2022-10-29T21:35:15;17.00;99.90
796;DHT22;381;48.770;9.188;2022-10-29T21:40:18;17.00;99.90
796;DHT22;381;48.770;9.188;2022-10-29T21:45:20;17.00;99.90
796;DHT22;381;48.770;9.188;2022-10-29T21:50:22;17.00;99.90
796;DHT22;381;48.770;9.188;2022-10-29T21:55:26;17.00;99.90
796;DHT22;381;48.770;9.188;2022-10-29T22:00:28;16.90;99.90
796;DHT22;381;48.770;9.188;2022-10-29T22:05:31;16.90;99.90
796;DHT22;381;48.770;9.188;2022-10-29T22:10:34;16.80;99.90
796;DHT22;381;48.770;9.188;2022-10-29T22:15:36;16.80;99.90
796;DHT22;381;48.770;9.188;2022-10-29T22:20:38;16.80;99.90
796;DHT22;381;48.770;9.188;2022-10-29T22:25:41;16.80;99.90
796;DHT22;381;48.770;9.188;2022-10-29T22:30:56;16.80;99.90
796;DHT22;381;48.770;9.188;2022-10-29T22:36:03;16.70;99.90
796;DHT22;381;48.770;9.188;2022-10-29T22:41:09;16.70;99.90
796;DHT22;381;48.770;9.188;2022-10-29T22:46:12;16.70;99.90
796;DHT22;381;48.770;9.188;2022-10-29T22:51:16;16.60;99.90
796;DHT22;381;48.770;9.188;2022-10-29T22:56:21;16.60;99.90
796;DHT22;381;48.770;9.188;2022-10-29T23:01:26;16.60;99.90
796;DHT22;381;48.770;9.188;2022-10-29T23:06:29;16.50;99.90
796;DHT22;381;48.770;9.188;2022-10-29T23:11:32;16.50;99.90
796;DHT22;381;48.770;9.188;2022-10-29T23:16:38;16.50;99.90
796;DHT22;381;48.770;9.188;2022-10-29T23:21:40;16.50;99.90
796;DHT22;381;48.770;9.188;2022-10-29T23:26:44;16.40;99.90
796;DHT22;381;48.770;9.188;2022-10-29T23:31:46;16.40;99.90
796;DHT22;381;48.770;9.188;2022-10-29T23:36:48;16.40;99.90
796;DHT22;381;48.770;9.188;2022-10-29T23:41:51;16.40;99.90
796;DHT22;381;48.770;9.188;2022-10-29T23:46:53;16.40;99.90
796;DHT22;381;48.770;9.188;2022-10-29T23:51:55;16.40;99.90
796;DHT22;381;48.770;9.188;2022-10-29T23:56:58;16.30;99.90
